sensor_id;sensor_type;location;lat;lon;timestamp;temperature;humidity
14079;DHT22;7115;50.150;8.568;2023-06-04T00:02:09;17.90;61.50
14079;DHT22;7115;50.150;8.568;2023-06-04T00:04:36;17.90;61.50
14079;DHT22;7115;50.150;8.568;2023-06-04T00:07:04;17.90;61.60
14079;DHT22;7115;50.150;8.568;2023-06-04T00:09:31;17.90;61.60
14079;DHT22;7115;50.150;8.568;2023-06-04T00:11:58;17.80;61.60
14079;DHT22;7115;50.150;8.568;2023-06-04T00:14:26;17.80;61.70
14079;DHT22;7115;50.150;8.568;2023-06-04T00:16:53;17.80;61.80
14079;DHT22;7115;50.150;8.568;2023-06-04T00:19:21;17.80;61.90
14079;DHT22;7115;50.150;8.568;2023-06-04T00:21:48;17.70;61.80
14079;DHT22;7115;50.150;8.568;2023-06-04T00:24:16;17.70;62.00
14079;DHT22;7115;50.150;8.568;2023-06-04T00:26:43;17.70;62.10
14079;DHT22;7115;50.150;8.568;2023-06-04T00:29:10;17.70;62.20
14079;DHT22;7115;50.150;8.568;2023-06-04T00:31:38;17.70;62.20
14079;DHT22;7115;50.150;8.568;2023-06-04T00:34:05;17.60;62.10
14079;DHT22;7115;50.150;8.568;2023-06-04T00:36:32;17.60;62.10
14079;DHT22;7115;50.150;8.568;2023-06-04T00:38:59;17.60;62.00
14079;DHT22;7115;50.150;8.568;2023-06-04T00:41:26;17.60;62.10
14079;DHT22;7115;50.150;8.568;2023-06-04T00:43:53;17.50;62.20
14079;DHT22;7115;50.150;8.568;2023-06-04T00:46:25;17.50;62.20
14079;DHT22;7115;50.150;8.568;2023-06-04T00:48:55;17.50;62.30
14079;DHT22;7115;50.150;8.568;2023-06-04T00:51:22;17.40;62.30
14079;DHT22;7115;50.150;8.568;2023-06-04T00:53:50;17.40;62.40
14079;DHT22;7115;50.150;8.568;2023-06-04T00:56:17;17.40;62.50
14079;DHT22;7115;50.150;8.568;2023-06-04T00:58:45;17.30;62.60
14079;DHT22;7115;50.150;8.568;2023-06-04T01:01:18;17.30;62.70
14079;DHT22;7115;50.150;8.568;2023-06-04T01:03:49;17.30;62.80
14079;DHT22;7115;50.150;8.568;2023-06-04T01:06:30;17.30;62.90
14079;DHT22;7115;50.150;8.568;2023-06-04T01:08:59;17.30;62.90
14079;DHT22;7115;50.150;8.568;2023-06-04T01:11:33;17.20;62.90
14079;DHT22;7115;50.150;8.568;2023-06-04T01:14:01;17.20;63.70
14079;DHT22;7115;50.150;8.568;2023-06-04T01:16:36;17.20;62.90
14079;DHT22;7115;50.150;8.568;2023-06-04T01:19:11;17.20;63.00
14079;DHT22;7115;50.150;8.568;2023-06-04T01:21:50;17.20;63.00
14079;DHT22;7115;50.150;8.568;2023-06-04T01:24:21;17.20;63.00
14079;DHT22;7115;50.150;8.568;2023-06-04T01:26:53;17.10;63.10
14079;DHT22;7115;50.150;8.568;2023-06-04T01:29:22;17.10;63.10
14079;DHT22;7115;50.150;8.568;2023-06-04T01:31:50;17.10;63.20
14079;DHT22;7115;50.150;8.568;2023-06-04T01:34:19;17.10;63.20
14079;DHT22;7115;50.150;8.568;2023-06-04T01:36:46;17.10;63.20
14079;DHT22;7115;50.150;8.568;2023-06-04T01:39:14;17.10;63.20
14079;DHT22;7115;50.150;8.568;2023-06-04T01:41:41;17.10;63.10
14079;DHT22;7115;50.150;8.568;2023-06-04T01:44:08;17.10;63.10
14079;DHT22;7115;50.150;8.568;2023-06-04T01:46:35;17.10;63.00
14079;DHT22;7115;50.150;8.568;2023-06-04T01:49:02;17.10;63.00
14079;DHT22;7115;50.150;8.568;2023-06-04T01:51:29;17.00;63.00
14079;DHT22;7115;50.150;8.568;2023-06-04T01:53:56;17.00;63.00
14079;DHT22;7115;50.150;8.568;2023-06-04T01:56:25;17.00;63.00
14079;DHT22;7115;50.150;8.568;2023-06-04T01:58:52;17.00;63.00
14079;DHT22;7115;50.150;8.568;2023-06-04T02:01:18;17.00;63.10
14079;DHT22;7115;50.150;8.568;2023-06-04T02:03:46;17.00;63.10
14079;DHT22;7115;50.150;8.568;2023-06-04T02:06:13;17.00;63.20
14079;DHT22;7115;50.150;8.568;2023-06-04T02:08:40;16.90;63.10
14079;DHT22;7115;50.150;8.568;2023-06-04T02:11:07;16.90;63.20
14079;DHT22;7115;50.150;8.568;2023-06-04T02:13:36;16.90;63.30
14079;DHT22;7115;50.150;8.568;2023-06-04T02:16:03;16.90;63.40
14079;DHT22;7115;50.150;8.568;2023-06-04T02:18:30;16.90;63.50
14079;DHT22;7115;50.150;8.568;2023-06-04T02:20:57;16.80;64.10
14079;DHT22;7115;50.150;8.568;2023-06-04T02:23:25;16.80;63.50
14079;DHT22;7115;50.150;8.568;2023-06-04T02:25:52;16.80;63.50
14079;DHT22;7115;50.150;8.568;2023-06-04T02:28:19;16.80;63.50
14079;DHT22;7115;50.150;8.568;2023-06-04T02:30:48;16.70;63.60
14079;DHT22;7115;50.150;8.568;2023-06-04T02:33:15;16.70;63.80
14079;DHT22;7115;50.150;8.568;2023-06-04T02:35:42;16.70;63.90
14079;DHT22;7115;50.150;8.568;2023-06-04T02:38:09;16.70;63.90
14079;DHT22;7115;50.150;8.568;2023-06-04T02:40:36;16.70;64.00
14079;DHT22;7115;50.150;8.568;2023-06-04T02:43:03;16.60;64.00
14079;DHT22;7115;50.150;8.568;2023-06-04T02:45:30;16.60;64.00
14079;DHT22;7115;50.150;8.568;2023-06-04T02:47:58;16.60;64.20
14079;DHT22;7115;50.150;8.568;2023-06-04T02:50:25;16.60;64.30
14079;DHT22;7115;50.150;8.568;2023-06-04T02:52:52;16.70;64.40
14079;DHT22;7115;50.150;8.568;2023-06-04T02:55:19;16.50;64.40
14079;DHT22;7115;50.150;8.568;2023-06-04T02:57:46;16.50;64.60
14079;DHT22;7115;50.150;8.568;2023-06-04T03:00:14;16.50;64.70
14079;DHT22;7115;50.150;8.568;2023-06-04T03:02:43;16.50;64.80
14079;DHT22;7115;50.150;8.568;2023-06-04T03:05:13;16.40;64.80
14079;DHT22;7115;50.150;8.568;2023-06-04T03:07:42;16.40;64.80
14079;DHT22;7115;50.150;8.568;2023-06-04T03:10:11;16.40;64.80
14079;DHT22;7115;50.150;8.568;2023-06-04T03:12:38;16.40;64.80
14079;DHT22;7115;50.150;8.568;2023-06-04T03:15:06;16.40;64.80
14079;DHT22;7115;50.150;8.568;2023-06-04T03:17:33;16.40;64.80
14079;DHT22;7115;50.150;8.568;2023-06-04T03:20:00;16.40;64.80
14079;DHT22;7115;50.150;8.568;2023-06-04T03:22:28;16.40;64.90
14079;DHT22;7115;50.150;8.568;2023-06-04T03:24:55;16.30;65.00
14079;DHT22;7115;50.150;8.568;2023-06-04T03:27:22;16.30;65.10
14079;DHT22;7115;50.150;8.568;2023-06-04T03:29:49;16.30;65.20
14079;DHT22;7115;50.150;8.568;2023-06-04T03:32:16;16.30;65.30
14079;DHT22;7115;50.150;8.568;2023-06-04T03:34:43;16.30;65.40
14079;DHT22;7115;50.150;8.568;2023-06-04T03:37:10;16.20;65.40
14079;DHT22;7115;50.150;8.568;2023-06-04T03:39:39;16.20;65.60
14079;DHT22;7115;50.150;8.568;2023-06-04T03:42:06;16.20;65.90
14079;DHT22;7115;50.150;8.568;2023-06-04T03:44:33;16.10;66.20
14079;DHT22;7115;50.150;8.568;2023-06-04T03:47:00;16.10;66.60
14079;DHT22;7115;50.150;8.568;2023-06-04T03:49:26;16.00;67.00
14079;DHT22;7115;50.150;8.568;2023-06-04T03:51:53;16.00;67.40
14079;DHT22;7115;50.150;8.568;2023-06-04T03:54:21;15.90;67.70
14079;DHT22;7115;50.150;8.568;2023-06-04T03:56:49;15.80;67.80
14079;DHT22;7115;50.150;8.568;2023-06-04T03:59:16;15.80;68.20
14079;DHT22;7115;50.150;8.568;2023-06-04T04:01:43;15.80;68.50
14079;DHT22;7115;50.150;8.568;2023-06-04T04:04:10;15.80;68.60
14079;DHT22;7115;50.150;8.568;2023-06-04T04:06:37;15.80;68.60
14079;DHT22;7115;50.150;8.568;2023-06-04T04:09:04;15.70;68.60
14079;DHT22;7115;50.150;8.568;2023-06-04T04:11:33;15.70;68.60
14079;DHT22;7115;50.150;8.568;2023-06-04T04:14:01;15.70;68.40
14079;DHT22;7115;50.150;8.568;2023-06-04T04:16:28;15.80;68.50
14079;DHT22;7115;50.150;8.568;2023-06-04T04:18:55;15.80;68.60
14079;DHT22;7115;50.150;8.568;2023-06-04T04:21:22;15.80;68.70
14079;DHT22;7115;50.150;8.568;2023-06-04T04:23:49;15.80;68.80
14079;DHT22;7115;50.150;8.568;2023-06-04T04:26:17;15.80;69.00
14079;DHT22;7115;50.150;8.568;2023-06-04T04:28:44;15.80;69.10
14079;DHT22;7115;50.150;8.568;2023-06-04T04:31:13;15.90;69.30
14079;DHT22;7115;50.150;8.568;2023-06-04T04:33:41;15.80;69.30
14079;DHT22;7115;50.150;8.568;2023-06-04T04:36:08;15.90;69.30
14079;DHT22;7115;50.150;8.568;2023-06-04T04:38:39;15.90;69.80
14079;DHT22;7115;50.150;8.568;2023-06-04T04:41:07;15.90;69.60
14079;DHT22;7115;50.150;8.568;2023-06-04T04:43:36;15.90;69.80
14079;DHT22;7115;50.150;8.568;2023-06-04T04:46:04;15.80;70.00
14079;DHT22;7115;50.150;8.568;2023-06-04T04:48:33;15.80;70.30
14079;DHT22;7115;50.150;8.568;2023-06-04T04:51:00;15.80;70.70
14079;DHT22;7115;50.150;8.568;2023-06-04T04:53:26;15.70;71.10
14079;DHT22;7115;50.150;8.568;2023-06-04T04:55:54;15.70;71.50
14079;DHT22;7115;50.150;8.568;2023-06-04T04:58:21;15.70;71.80
14079;DHT22;7115;50.150;8.568;2023-06-04T05:00:48;15.60;72.10
14079;DHT22;7115;50.150;8.568;2023-06-04T05:03:16;15.60;72.50
14079;DHT22;7115;50.150;8.568;2023-06-04T05:05:44;15.60;72.90
14079;DHT22;7115;50.150;8.568;2023-06-04T05:08:11;15.60;73.20
14079;DHT22;7115;50.150;8.568;2023-06-04T05:10:38;15.60;73.40
14079;DHT22;7115;50.150;8.568;2023-06-04T05:13:05;15.60;73.60
14079;DHT22;7115;50.150;8.568;2023-06-04T05:15:33;15.60;73.80
14079;DHT22;7115;50.150;8.568;2023-06-04T05:18:00;15.70;74.10
14079;DHT22;7115;50.150;8.568;2023-06-04T05:20:30;15.70;74.20
14079;DHT22;7115;50.150;8.568;2023-06-04T05:22:59;15.80;74.40
14079;DHT22;7115;50.150;8.568;2023-06-04T05:25:25;15.80;74.40
14079;DHT22;7115;50.150;8.568;2023-06-04T05:27:56;15.90;74.50
14079;DHT22;7115;50.150;8.568;2023-06-04T05:30:23;15.90;74.50
14079;DHT22;7115;50.150;8.568;2023-06-04T05:32:50;16.00;74.80
14079;DHT22;7115;50.150;8.568;2023-06-04T05:35:20;16.10;75.00
14079;DHT22;7115;50.150;8.568;2023-06-04T05:37:47;16.10;75.10
14079;DHT22;7115;50.150;8.568;2023-06-04T05:40:21;16.20;75.20
14079;DHT22;7115;50.150;8.568;2023-06-04T05:42:48;16.20;76.00
14079;DHT22;7115;50.150;8.568;2023-06-04T05:45:16;16.30;75.40
14079;DHT22;7115;50.150;8.568;2023-06-04T05:47:43;16.40;75.40
14079;DHT22;7115;50.150;8.568;2023-06-04T05:50:10;16.50;75.50
14079;DHT22;7115;50.150;8.568;2023-06-04T05:52:37;16.50;75.30
14079;DHT22;7115;50.150;8.568;2023-06-04T05:55:05;16.60;75.20
14079;DHT22;7115;50.150;8.568;2023-06-04T05:57:36;16.70;75.30
14079;DHT22;7115;50.150;8.568;2023-06-04T06:00:03;16.80;75.30
14079;DHT22;7115;50.150;8.568;2023-06-04T06:02:35;16.90;75.10
14079;DHT22;7115;50.150;8.568;2023-06-04T06:05:04;17.00;74.90
14079;DHT22;7115;50.150;8.568;2023-06-04T06:07:34;17.10;74.80
14079;DHT22;7115;50.150;8.568;2023-06-04T06:10:01;17.20;74.60
14079;DHT22;7115;50.150;8.568;2023-06-04T06:12:30;17.30;74.40
14079;DHT22;7115;50.150;8.568;2023-06-04T06:14:58;17.30;74.20
14079;DHT22;7115;50.150;8.568;2023-06-04T06:17:25;17.40;73.80
14079;DHT22;7115;50.150;8.568;2023-06-04T06:19:52;17.50;73.60
14079;DHT22;7115;50.150;8.568;2023-06-04T06:22:19;17.60;73.30
14079;DHT22;7115;50.150;8.568;2023-06-04T06:24:46;17.60;73.30
14079;DHT22;7115;50.150;8.568;2023-06-04T06:27:16;17.70;73.20
14079;DHT22;7115;50.150;8.568;2023-06-04T06:29:44;17.80;73.30
14079;DHT22;7115;50.150;8.568;2023-06-04T06:32:12;17.90;73.10
14079;DHT22;7115;50.150;8.568;2023-06-04T06:34:39;18.00;73.00
14079;DHT22;7115;50.150;8.568;2023-06-04T06:37:06;18.10;73.00
14079;DHT22;7115;50.150;8.568;2023-06-04T06:39:33;18.20;73.00
14079;DHT22;7115;50.150;8.568;2023-06-04T06:42:00;18.30;73.00
14079;DHT22;7115;50.150;8.568;2023-06-04T06:44:27;18.40;72.90
14079;DHT22;7115;50.150;8.568;2023-06-04T06:46:54;18.50;72.70
14079;DHT22;7115;50.150;8.568;2023-06-04T06:49:22;18.60;72.40
14079;DHT22;7115;50.150;8.568;2023-06-04T06:51:49;18.70;72.30
14079;DHT22;7115;50.150;8.568;2023-06-04T06:54:16;18.80;72.10
14079;DHT22;7115;50.150;8.568;2023-06-04T06:56:43;19.00;72.00
14079;DHT22;7115;50.150;8.568;2023-06-04T06:59:10;18.90;71.70
14079;DHT22;7115;50.150;8.568;2023-06-04T07:01:37;19.00;71.60
14079;DHT22;7115;50.150;8.568;2023-06-04T07:04:04;19.10;71.20
14079;DHT22;7115;50.150;8.568;2023-06-04T07:06:33;19.20;70.70
14079;DHT22;7115;50.150;8.568;2023-06-04T07:09:00;19.30;69.90
14079;DHT22;7115;50.150;8.568;2023-06-04T07:11:27;19.40;69.30
14079;DHT22;7115;50.150;8.568;2023-06-04T07:13:54;19.50;68.70
14079;DHT22;7115;50.150;8.568;2023-06-04T07:16:21;19.60;67.90
14079;DHT22;7115;50.150;8.568;2023-06-04T07:18:48;19.70;67.00
14079;DHT22;7115;50.150;8.568;2023-06-04T07:21:18;19.80;66.10
14079;DHT22;7115;50.150;8.568;2023-06-04T07:23:48;19.90;65.30
14079;DHT22;7115;50.150;8.568;2023-06-04T07:26:18;20.00;64.50
14079;DHT22;7115;50.150;8.568;2023-06-04T07:28:46;20.10;64.00
14079;DHT22;7115;50.150;8.568;2023-06-04T07:31:15;20.30;63.70
14079;DHT22;7115;50.150;8.568;2023-06-04T07:33:43;20.30;63.20
14079;DHT22;7115;50.150;8.568;2023-06-04T07:36:11;20.40;62.90
14079;DHT22;7115;50.150;8.568;2023-06-04T07:38:39;20.50;62.50
14079;DHT22;7115;50.150;8.568;2023-06-04T07:41:07;20.50;62.20
14079;DHT22;7115;50.150;8.568;2023-06-04T07:43:34;20.50;61.80
14079;DHT22;7115;50.150;8.568;2023-06-04T07:46:02;20.60;61.70
14079;DHT22;7115;50.150;8.568;2023-06-04T07:48:29;20.60;61.30
14079;DHT22;7115;50.150;8.568;2023-06-04T07:50:59;20.70;60.90
14079;DHT22;7115;50.150;8.568;2023-06-04T07:53:26;20.80;61.10
14079;DHT22;7115;50.150;8.568;2023-06-04T07:55:54;20.90;61.60
14079;DHT22;7115;50.150;8.568;2023-06-04T07:58:23;21.00;61.50
14079;DHT22;7115;50.150;8.568;2023-06-04T08:00:50;21.10;61.30
14079;DHT22;7115;50.150;8.568;2023-06-04T08:03:17;21.20;61.10
14079;DHT22;7115;50.150;8.568;2023-06-04T08:05:44;21.30;60.70
14079;DHT22;7115;50.150;8.568;2023-06-04T08:08:11;21.30;60.50
14079;DHT22;7115;50.150;8.568;2023-06-04T08:10:39;21.30;60.50
14079;DHT22;7115;50.150;8.568;2023-06-04T08:13:07;21.40;60.70
14079;DHT22;7115;50.150;8.568;2023-06-04T08:15:36;21.50;60.90
14079;DHT22;7115;50.150;8.568;2023-06-04T08:18:03;21.50;60.50
14079;DHT22;7115;50.150;8.568;2023-06-04T08:20:30;21.60;60.30
14079;DHT22;7115;50.150;8.568;2023-06-04T08:22:57;21.70;60.10
14079;DHT22;7115;50.150;8.568;2023-06-04T08:25:24;21.70;60.10
14079;DHT22;7115;50.150;8.568;2023-06-04T08:27:51;21.80;60.30
14079;DHT22;7115;50.150;8.568;2023-06-04T08:30:18;21.80;60.20
14079;DHT22;7115;50.150;8.568;2023-06-04T08:32:46;21.90;60.40
14079;DHT22;7115;50.150;8.568;2023-06-04T08:35:13;22.00;60.40
14079;DHT22;7115;50.150;8.568;2023-06-04T08:37:40;22.10;60.40
14079;DHT22;7115;50.150;8.568;2023-06-04T08:40:09;22.20;60.60
14079;DHT22;7115;50.150;8.568;2023-06-04T08:42:40;22.30;60.30
14079;DHT22;7115;50.150;8.568;2023-06-04T08:45:10;22.40;60.20
14079;DHT22;7115;50.150;8.568;2023-06-04T08:47:40;22.50;60.30
14079;DHT22;7115;50.150;8.568;2023-06-04T08:50:10;22.60;60.10
14079;DHT22;7115;50.150;8.568;2023-06-04T08:52:38;22.60;59.60
14079;DHT22;7115;50.150;8.568;2023-06-04T08:55:09;22.70;59.70
14079;DHT22;7115;50.150;8.568;2023-06-04T08:57:38;22.70;59.50
14079;DHT22;7115;50.150;8.568;2023-06-04T09:00:07;22.80;59.20
14079;DHT22;7115;50.150;8.568;2023-06-04T09:02:36;22.80;59.10
14079;DHT22;7115;50.150;8.568;2023-06-04T09:05:07;22.80;59.00
14079;DHT22;7115;50.150;8.568;2023-06-04T09:07:39;23.00;59.00
14079;DHT22;7115;50.150;8.568;2023-06-04T09:10:08;23.10;59.60
14079;DHT22;7115;50.150;8.568;2023-06-04T09:12:42;23.20;58.90
14079;DHT22;7115;50.150;8.568;2023-06-04T09:15:10;23.20;58.90
14079;DHT22;7115;50.150;8.568;2023-06-04T09:17:37;23.30;58.80
14079;DHT22;7115;50.150;8.568;2023-06-04T09:20:05;23.40;58.60
14079;DHT22;7115;50.150;8.568;2023-06-04T09:22:38;23.60;58.30
14079;DHT22;7115;50.150;8.568;2023-06-04T09:25:07;23.70;58.20
14079;DHT22;7115;50.150;8.568;2023-06-04T09:27:45;23.80;58.10
14079;DHT22;7115;50.150;8.568;2023-06-04T09:30:12;23.80;57.70
14079;DHT22;7115;50.150;8.568;2023-06-04T09:32:39;23.90;57.40
14079;DHT22;7115;50.150;8.568;2023-06-04T09:35:10;24.00;57.30
14079;DHT22;7115;50.150;8.568;2023-06-04T09:37:40;24.10;57.20
14079;DHT22;7115;50.150;8.568;2023-06-04T09:40:08;24.20;57.10
14079;DHT22;7115;50.150;8.568;2023-06-04T09:42:42;24.30;56.80
14079;DHT22;7115;50.150;8.568;2023-06-04T09:45:10;24.40;56.60
14079;DHT22;7115;50.150;8.568;2023-06-04T09:47:42;24.40;56.50
14079;DHT22;7115;50.150;8.568;2023-06-04T09:50:11;24.50;56.50
14079;DHT22;7115;50.150;8.568;2023-06-04T09:52:40;24.50;56.30
14079;DHT22;7115;50.150;8.568;2023-06-04T09:55:17;24.70;56.30
14079;DHT22;7115;50.150;8.568;2023-06-04T09:57:50;24.70;56.00
14079;DHT22;7115;50.150;8.568;2023-06-04T10:00:19;24.80;55.90
14079;DHT22;7115;50.150;8.568;2023-06-04T10:02:48;24.70;55.60
14079;DHT22;7115;50.150;8.568;2023-06-04T10:05:16;24.70;55.60
14079;DHT22;7115;50.150;8.568;2023-06-04T10:07:49;24.80;55.60
14079;DHT22;7115;50.150;8.568;2023-06-04T10:10:23;24.90;55.60
14079;DHT22;7115;50.150;8.568;2023-06-04T10:12:54;25.00;55.40
14079;DHT22;7115;50.150;8.568;2023-06-04T10:15:26;25.10;55.30
14079;DHT22;7115;50.150;8.568;2023-06-04T10:17:54;25.20;55.90
14079;DHT22;7115;50.150;8.568;2023-06-04T10:20:21;25.30;55.10
14079;DHT22;7115;50.150;8.568;2023-06-04T10:22:51;25.40;54.80
14079;DHT22;7115;50.150;8.568;2023-06-04T10:25:18;25.50;54.60
14079;DHT22;7115;50.150;8.568;2023-06-04T10:27:46;25.60;54.70
14079;DHT22;7115;50.150;8.568;2023-06-04T10:30:13;25.70;54.30
14079;DHT22;7115;50.150;8.568;2023-06-04T10:32:40;25.80;53.70
14079;DHT22;7115;50.150;8.568;2023-06-04T10:35:08;25.80;53.10
14079;DHT22;7115;50.150;8.568;2023-06-04T10:37:35;25.80;53.20
14079;DHT22;7115;50.150;8.568;2023-06-04T10:40:04;25.80;53.20
14079;DHT22;7115;50.150;8.568;2023-06-04T10:42:38;25.90;52.70
14079;DHT22;7115;50.150;8.568;2023-06-04T10:45:08;25.90;52.20
14079;DHT22;7115;50.150;8.568;2023-06-04T10:47:35;25.90;51.80
14079;DHT22;7115;50.150;8.568;2023-06-04T10:50:09;25.90;51.50
14079;DHT22;7115;50.150;8.568;2023-06-04T10:52:37;25.90;51.50
14079;DHT22;7115;50.150;8.568;2023-06-04T10:55:07;25.90;51.30
14079;DHT22;7115;50.150;8.568;2023-06-04T10:57:37;25.90;50.70
14079;DHT22;7115;50.150;8.568;2023-06-04T11:00:05;25.80;50.40
14079;DHT22;7115;50.150;8.568;2023-06-04T11:02:37;25.90;50.50
14079;DHT22;7115;50.150;8.568;2023-06-04T11:05:06;26.00;50.40
14079;DHT22;7115;50.150;8.568;2023-06-04T11:07:42;26.10;50.50
14079;DHT22;7115;50.150;8.568;2023-06-04T11:10:11;26.20;50.50
14079;DHT22;7115;50.150;8.568;2023-06-04T11:12:42;26.30;50.40
14079;DHT22;7115;50.150;8.568;2023-06-04T11:15:10;26.40;50.40
14079;DHT22;7115;50.150;8.568;2023-06-04T11:17:37;26.50;50.30
14079;DHT22;7115;50.150;8.568;2023-06-04T11:20:06;26.70;50.00
14079;DHT22;7115;50.150;8.568;2023-06-04T11:22:42;26.90;49.90
14079;DHT22;7115;50.150;8.568;2023-06-04T11:25:10;27.00;49.80
14079;DHT22;7115;50.150;8.568;2023-06-04T11:27:37;27.20;49.60
14079;DHT22;7115;50.150;8.568;2023-06-04T11:30:07;27.30;49.50
14079;DHT22;7115;50.150;8.568;2023-06-04T11:32:35;27.30;49.40
14079;DHT22;7115;50.150;8.568;2023-06-04T11:35:03;27.40;49.40
14079;DHT22;7115;50.150;8.568;2023-06-04T11:37:31;27.60;49.50
14079;DHT22;7115;50.150;8.568;2023-06-04T11:39:59;27.60;49.10
14079;DHT22;7115;50.150;8.568;2023-06-04T11:42:33;27.50;48.80
14079;DHT22;7115;50.150;8.568;2023-06-04T11:45:00;27.70;49.20
14079;DHT22;7115;50.150;8.568;2023-06-04T11:47:27;27.70;49.10
14079;DHT22;7115;50.150;8.568;2023-06-04T11:49:55;27.80;49.00
14079;DHT22;7115;50.150;8.568;2023-06-04T11:52:25;27.70;48.60
14079;DHT22;7115;50.150;8.568;2023-06-04T11:54:52;27.80;48.40
14079;DHT22;7115;50.150;8.568;2023-06-04T11:57:19;27.80;48.30
14079;DHT22;7115;50.150;8.568;2023-06-04T11:59:48;27.90;48.50
14079;DHT22;7115;50.150;8.568;2023-06-04T12:02:15;28.00;48.70
14079;DHT22;7115;50.150;8.568;2023-06-04T12:04:42;28.20;48.70
14079;DHT22;7115;50.150;8.568;2023-06-04T12:07:09;28.30;48.40
14079;DHT22;7115;50.150;8.568;2023-06-04T12:09:36;28.40;47.70
14079;DHT22;7115;50.150;8.568;2023-06-04T12:12:06;28.30;47.10
14079;DHT22;7115;50.150;8.568;2023-06-04T12:14:34;28.10;46.50
14079;DHT22;7115;50.150;8.568;2023-06-04T12:17:06;28.00;46.40
14079;DHT22;7115;50.150;8.568;2023-06-04T12:19:46;27.90;46.50
14079;DHT22;7115;50.150;8.568;2023-06-04T12:22:14;27.80;46.70
14079;DHT22;7115;50.150;8.568;2023-06-04T12:24:46;27.80;47.00
14079;DHT22;7115;50.150;8.568;2023-06-04T12:27:14;27.80;46.90
14079;DHT22;7115;50.150;8.568;2023-06-04T12:29:41;27.80;47.20
14079;DHT22;7115;50.150;8.568;2023-06-04T12:32:10;27.90;47.40
14079;DHT22;7115;50.150;8.568;2023-06-04T12:34:39;28.00;47.30
14079;DHT22;7115;50.150;8.568;2023-06-04T12:37:07;28.00;47.10
14079;DHT22;7115;50.150;8.568;2023-06-04T12:39:34;28.00;47.30
14079;DHT22;7115;50.150;8.568;2023-06-04T12:42:04;28.00;47.50
14079;DHT22;7115;50.150;8.568;2023-06-04T12:44:31;28.00;47.60
14079;DHT22;7115;50.150;8.568;2023-06-04T12:47:01;28.20;47.60
14079;DHT22;7115;50.150;8.568;2023-06-04T12:49:30;28.30;47.50
14079;DHT22;7115;50.150;8.568;2023-06-04T12:51:57;28.40;47.40
14079;DHT22;7115;50.150;8.568;2023-06-04T12:54:25;28.40;47.20
14079;DHT22;7115;50.150;8.568;2023-06-04T12:56:53;28.40;46.80
14079;DHT22;7115;50.150;8.568;2023-06-04T12:59:23;28.30;46.50
14079;DHT22;7115;50.150;8.568;2023-06-04T13:01:50;28.30;46.30
14079;DHT22;7115;50.150;8.568;2023-06-04T13:04:17;28.20;46.10
14079;DHT22;7115;50.150;8.568;2023-06-04T13:06:46;28.10;46.20
14079;DHT22;7115;50.150;8.568;2023-06-04T13:09:13;28.00;46.10
14079;DHT22;7115;50.150;8.568;2023-06-04T13:11:42;28.00;46.30
14079;DHT22;7115;50.150;8.568;2023-06-04T13:14:10;28.00;46.40
14079;DHT22;7115;50.150;8.568;2023-06-04T13:16:38;28.10;46.40
14079;DHT22;7115;50.150;8.568;2023-06-04T13:19:06;28.20;46.30
14079;DHT22;7115;50.150;8.568;2023-06-04T13:21:33;28.20;46.10
14079;DHT22;7115;50.150;8.568;2023-06-04T13:24:03;28.20;46.20
14079;DHT22;7115;50.150;8.568;2023-06-04T13:26:30;28.20;46.30
14079;DHT22;7115;50.150;8.568;2023-06-04T13:28:57;28.30;46.30
14079;DHT22;7115;50.150;8.568;2023-06-04T13:31:23;28.40;46.40
14079;DHT22;7115;50.150;8.568;2023-06-04T13:33:51;28.40;46.20
14079;DHT22;7115;50.150;8.568;2023-06-04T13:36:18;28.40;46.50
14079;DHT22;7115;50.150;8.568;2023-06-04T13:38:45;28.40;46.00
14079;DHT22;7115;50.150;8.568;2023-06-04T13:41:13;28.50;46.20
14079;DHT22;7115;50.150;8.568;2023-06-04T13:43:40;28.50;46.20
14079;DHT22;7115;50.150;8.568;2023-06-04T13:46:07;28.50;46.10
14079;DHT22;7115;50.150;8.568;2023-06-04T13:48:34;28.60;46.10
14079;DHT22;7115;50.150;8.568;2023-06-04T13:51:01;28.60;46.00
14079;DHT22;7115;50.150;8.568;2023-06-04T13:53:28;28.60;45.90
14079;DHT22;7115;50.150;8.568;2023-06-04T13:55:55;28.60;45.80
14079;DHT22;7115;50.150;8.568;2023-06-04T13:58:26;28.60;45.70
14079;DHT22;7115;50.150;8.568;2023-06-04T14:00:53;28.50;45.50
14079;DHT22;7115;50.150;8.568;2023-06-04T14:03:21;28.50;45.70
14079;DHT22;7115;50.150;8.568;2023-06-04T14:05:48;28.50;45.80
14079;DHT22;7115;50.150;8.568;2023-06-04T14:08:15;28.50;45.80
14079;DHT22;7115;50.150;8.568;2023-06-04T14:10:42;28.50;45.90
14079;DHT22;7115;50.150;8.568;2023-06-04T14:13:09;28.30;45.70
14079;DHT22;7115;50.150;8.568;2023-06-04T14:15:38;28.30;45.70
14079;DHT22;7115;50.150;8.568;2023-06-04T14:18:05;28.30;45.70
14079;DHT22;7115;50.150;8.568;2023-06-04T14:20:32;28.20;45.70
14079;DHT22;7115;50.150;8.568;2023-06-04T14:22:59;28.20;45.80
14079;DHT22;7115;50.150;8.568;2023-06-04T14:25:26;28.30;46.00
14079;DHT22;7115;50.150;8.568;2023-06-04T14:27:54;28.30;46.10
14079;DHT22;7115;50.150;8.568;2023-06-04T14:30:21;28.30;46.20
14079;DHT22;7115;50.150;8.568;2023-06-04T14:32:49;28.30;46.10
14079;DHT22;7115;50.150;8.568;2023-06-04T14:35:16;28.30;45.80
14079;DHT22;7115;50.150;8.568;2023-06-04T14:37:43;28.30;45.80
14079;DHT22;7115;50.150;8.568;2023-06-04T14:40:10;28.30;45.60
14079;DHT22;7115;50.150;8.568;2023-06-04T14:42:37;28.20;45.20
14079;DHT22;7115;50.150;8.568;2023-06-04T14:45:05;28.00;45.10
14079;DHT22;7115;50.150;8.568;2023-06-04T14:47:32;28.00;45.20
14079;DHT22;7115;50.150;8.568;2023-06-04T14:50:00;27.90;45.30
14079;DHT22;7115;50.150;8.568;2023-06-04T14:52:27;27.80;45.60
14079;DHT22;7115;50.150;8.568;2023-06-04T14:54:54;27.80;45.70
14079;DHT22;7115;50.150;8.568;2023-06-04T14:57:21;27.80;45.70
14079;DHT22;7115;50.150;8.568;2023-06-04T14:59:48;27.80;45.80
14079;DHT22;7115;50.150;8.568;2023-06-04T15:02:15;27.90;45.80
14079;DHT22;7115;50.150;8.568;2023-06-04T15:04:46;27.80;45.70
14079;DHT22;7115;50.150;8.568;2023-06-04T15:07:14;27.70;45.70
14079;DHT22;7115;50.150;8.568;2023-06-04T15:09:41;27.80;45.80
14079;DHT22;7115;50.150;8.568;2023-06-04T15:12:08;27.80;45.60
14079;DHT22;7115;50.150;8.568;2023-06-04T15:14:35;27.80;45.60
14079;DHT22;7115;50.150;8.568;2023-06-04T15:17:02;27.70;45.60
14079;DHT22;7115;50.150;8.568;2023-06-04T15:19:30;27.60;45.50
14079;DHT22;7115;50.150;8.568;2023-06-04T15:21:57;27.60;45.60
14079;DHT22;7115;50.150;8.568;2023-06-04T15:24:25;27.60;45.70
14079;DHT22;7115;50.150;8.568;2023-06-04T15:26:52;27.50;45.70
14079;DHT22;7115;50.150;8.568;2023-06-04T15:29:19;27.50;45.90
14079;DHT22;7115;50.150;8.568;2023-06-04T15:31:46;27.60;46.10
14079;DHT22;7115;50.150;8.568;2023-06-04T15:34:13;27.60;46.20
14079;DHT22;7115;50.150;8.568;2023-06-04T15:36:40;27.60;46.30
14079;DHT22;7115;50.150;8.568;2023-06-04T15:39:07;27.60;46.20
14079;DHT22;7115;50.150;8.568;2023-06-04T15:41:35;27.60;46.20
14079;DHT22;7115;50.150;8.568;2023-06-04T15:44:02;27.50;46.00
14079;DHT22;7115;50.150;8.568;2023-06-04T15:46:29;27.40;46.00
14079;DHT22;7115;50.150;8.568;2023-06-04T15:48:56;27.40;46.00
14079;DHT22;7115;50.150;8.568;2023-06-04T15:51:23;27.30;46.00